createdAt,value
2023-03-01T00:02:35.627Z,-1.64
2023-03-01T00:05:37.364Z,-1.65
2023-03-01T00:08:40.500Z,-1.66
2023-03-01T00:11:42.693Z,-1.68
2023-03-01T00:14:44.352Z,-1.66
2023-03-01T00:17:46.185Z,-1.69
2023-03-01T00:20:50.633Z,-1.72
2023-03-01T00:23:53.596Z,-1.74
2023-03-01T00:26:56.407Z,-1.72
2023-03-01T00:29:58.837Z,-1.71
2023-03-01T00:33:00.917Z,-1.73
2023-03-01T00:36:03.500Z,-1.76
2023-03-01T00:39:07.145Z,-1.76
2023-03-01T00:42:09.026Z,-1.77
2023-03-01T00:45:11.012Z,-1.76
2023-03-01T00:48:12.605Z,-1.75
2023-03-01T00:51:15.417Z,-1.74
2023-03-01T00:54:18.504Z,-1.72
2023-03-01T01:05:00.673Z,-1.60
2023-03-01T01:08:02.306Z,-1.60
2023-03-01T01:11:05.713Z,-1.69
2023-03-01T01:14:07.620Z,-1.82
2023-03-01T01:17:09.300Z,-1.93
2023-03-01T01:20:14.298Z,-1.96
2023-03-01T01:23:15.938Z,-2.02
2023-03-01T01:26:20.155Z,-2.04
2023-03-01T01:29:21.703Z,-2.04
2023-03-01T01:32:26.006Z,-2.05
2023-03-01T01:35:28.582Z,-2.06
2023-03-01T01:38:30.417Z,-2.03
2023-03-01T01:41:33.404Z,-2.06
2023-03-01T01:44:35.218Z,-2.08
2023-03-01T01:47:37.025Z,-2.10
2023-03-01T01:50:40.692Z,-2.12
2023-03-01T01:53:44.340Z,-2.17
2023-03-01T01:56:50.106Z,-2.21
2023-03-01T01:59:53.776Z,-2.25
2023-03-01T02:02:57.595Z,-2.29
2023-03-01T02:06:01.960Z,-2.29
2023-03-01T02:09:07.808Z,-2.29
2023-03-01T02:12:11.150Z,-2.27
2023-03-01T02:15:12.892Z,-2.25
2023-03-01T02:18:19.332Z,-2.25
2023-03-01T02:21:29.921Z,-2.23
2023-03-01T02:24:36.681Z,-2.25
2023-03-01T02:27:46.311Z,-2.31
2023-03-01T02:31:08.907Z,-2.38
2023-03-01T02:34:14.645Z,-2.38
2023-03-01T02:37:21.547Z,-2.37
2023-03-01T02:40:23.931Z,-2.35
2023-03-01T02:43:28.610Z,-2.28
2023-03-01T02:46:31.958Z,-2.29
2023-03-01T02:49:35.652Z,-2.27
2023-03-01T02:52:43.426Z,-2.26
2023-03-01T02:55:44.957Z,-2.26
2023-03-01T02:58:49.010Z,-2.27
2023-03-01T03:08:34.030Z,-2.29
2023-03-01T03:11:37.862Z,-2.33
2023-03-01T03:14:40.029Z,-2.34
2023-03-01T03:17:44.157Z,-2.35
2023-03-01T03:20:47.000Z,-2.38
2023-03-01T03:23:49.896Z,-2.45
2023-03-01T03:26:51.432Z,-2.49
2023-03-01T03:29:52.936Z,-2.54
2023-03-01T03:32:54.848Z,-2.56
2023-03-01T03:35:56.754Z,-2.54
2023-03-01T03:39:00.381Z,-2.54
2023-03-01T03:42:02.782Z,-2.59
2023-03-01T03:45:04.653Z,-2.56
2023-03-01T03:48:07.716Z,-2.54
2023-03-01T03:51:11.941Z,-2.55
2023-03-01T03:54:14.986Z,-2.55
2023-03-01T03:57:17.164Z,-2.54
2023-03-01T04:00:20.118Z,-2.62
2023-03-01T04:03:21.849Z,-2.68
2023-03-01T04:06:23.571Z,-2.75
2023-03-01T04:09:26.728Z,-2.83
2023-03-01T04:12:28.352Z,-2.88
2023-03-01T04:15:30.101Z,-2.92
2023-03-01T04:18:31.993Z,-2.95
2023-03-01T04:21:33.670Z,-2.97
2023-03-01T04:24:36.848Z,-2.97
2023-03-01T04:27:38.358Z,-2.94
2023-03-01T04:30:40.066Z,-2.91
2023-03-01T04:33:42.556Z,-2.86
2023-03-01T04:36:44.342Z,-2.84
2023-03-01T04:39:48.441Z,-2.84
2023-03-01T04:42:50.387Z,-2.88
2023-03-01T04:45:52.309Z,-2.89
2023-03-01T04:48:53.977Z,-2.91
2023-03-01T04:51:55.837Z,-2.96
2023-03-01T04:55:00.246Z,-2.99
2023-03-01T04:58:01.812Z,-3.02
2023-03-01T05:01:16.551Z,-3.06
2023-03-01T05:04:18.706Z,-3.04
2023-03-01T05:07:20.454Z,-3.04
2023-03-01T05:10:23.843Z,-3.04
2023-03-01T05:13:25.502Z,-3.10
2023-03-01T05:16:27.203Z,-3.11
2023-03-01T05:19:28.822Z,-3.11
2023-03-01T05:22:30.590Z,-3.16
2023-03-01T05:25:34.404Z,-3.16
2023-03-01T05:28:35.954Z,-3.18
2023-03-01T05:31:39.139Z,-3.17
2023-03-01T05:34:40.986Z,-3.15
2023-03-01T05:37:42.826Z,-3.16
2023-03-01T05:40:47.967Z,-3.16
2023-03-01T05:43:49.421Z,-3.18
2023-03-01T05:46:51.264Z,-3.15
2023-03-01T05:49:53.157Z,-3.11
2023-03-01T05:52:58.337Z,-3.13
2023-03-01T05:59:16.073Z,-3.11
2023-03-01T06:02:17.918Z,-3.11
2023-03-01T06:05:19.500Z,-3.10
2023-03-01T06:08:23.069Z,-3.12
2023-03-01T06:11:24.596Z,-3.12
2023-03-01T06:14:27.492Z,-3.11
2023-03-01T06:17:30.429Z,-3.09
2023-03-01T06:20:32.170Z,-3.03
2023-03-01T06:23:34.267Z,-2.97
2023-03-01T06:26:35.775Z,-2.92
2023-03-01T06:29:42.788Z,-2.90
2023-03-01T06:32:45.260Z,-2.87
2023-03-01T06:35:47.035Z,-2.86
2023-03-01T06:38:48.995Z,-2.82
2023-03-01T06:41:50.646Z,-2.78
2023-03-01T06:44:53.837Z,-2.76
2023-03-01T06:48:02.350Z,-2.75
2023-03-01T06:51:04.197Z,-2.74
2023-03-01T06:54:05.812Z,-2.69
2023-03-01T06:57:07.503Z,-2.63
2023-03-01T07:00:12.683Z,-2.60
2023-03-01T07:03:15.494Z,-2.53
2023-03-01T07:06:17.301Z,-2.50
2023-03-01T07:09:20.810Z,-2.45
2023-03-01T07:12:22.644Z,-2.38
2023-03-01T07:15:27.107Z,-2.33
2023-03-01T07:18:28.614Z,-2.27
2023-03-01T07:21:30.313Z,-2.21
2023-03-01T07:24:31.973Z,-2.17
2023-03-01T07:27:33.755Z,-2.11
2023-03-01T07:30:36.721Z,-2.06
2023-03-01T07:33:38.602Z,-2.01
2023-03-01T07:36:43.477Z,-1.96
2023-03-01T07:39:45.010Z,-1.85
2023-03-01T07:42:46.666Z,-1.78
2023-03-01T07:45:49.812Z,-1.72
2023-03-01T07:48:51.431Z,-1.67
2023-03-01T07:51:52.954Z,-1.65
2023-03-01T07:54:54.747Z,-1.61
2023-03-01T07:57:56.406Z,-1.53
2023-03-01T08:01:03.770Z,-1.47
2023-03-01T08:04:08.075Z,-1.36
2023-03-01T08:07:09.877Z,-1.29
2023-03-01T08:10:12.162Z,-1.22
2023-03-01T08:13:13.782Z,-1.17
2023-03-01T08:16:17.047Z,-1.12
2023-03-01T08:19:19.033Z,-1.06
2023-03-01T08:22:20.725Z,-1.00
2023-03-01T08:25:22.358Z,-0.92
2023-03-01T08:28:23.911Z,-0.77
2023-03-01T08:31:28.702Z,-0.61
2023-03-01T08:34:32.166Z,-0.50
2023-03-01T08:37:33.911Z,-0.39
2023-03-01T08:40:35.440Z,-0.28
2023-03-01T08:43:37.038Z,-0.12
2023-03-01T08:46:41.629Z,0.00
2023-03-01T08:49:43.343Z,0.12
2023-03-01T08:52:45.028Z,0.28
2023-03-01T08:55:46.607Z,0.25
2023-03-01T08:58:49.149Z,0.28
2023-03-01T09:01:52.396Z,0.33
2023-03-01T09:04:54.089Z,0.36
2023-03-01T09:07:55.768Z,0.47
2023-03-01T09:10:57.544Z,0.67
2023-03-01T09:13:59.432Z,0.68
2023-03-01T09:17:04.071Z,0.87
2023-03-01T09:20:06.961Z,0.92
2023-03-01T09:23:08.730Z,0.95
2023-03-01T09:26:11.113Z,1.00
2023-03-01T09:29:12.862Z,1.05
2023-03-01T09:32:16.694Z,1.16
2023-03-01T09:35:18.939Z,1.21
2023-03-01T09:38:20.639Z,1.26
2023-03-01T09:41:46.960Z,1.37
2023-03-01T09:44:52.313Z,1.42
2023-03-01T09:47:55.563Z,1.73
2023-03-01T09:50:57.337Z,1.70
2023-03-01T09:54:01.779Z,1.80
2023-03-01T09:57:09.002Z,1.60
2023-03-01T10:00:17.124Z,1.66
2023-03-01T10:03:26.192Z,1.97
2023-03-01T10:06:35.007Z,2.25
2023-03-01T10:09:38.584Z,2.35
2023-03-01T10:12:41.900Z,2.22
2023-03-01T10:15:45.044Z,2.03
2023-03-01T10:18:52.779Z,2.15
2023-03-01T10:21:55.084Z,2.29
2023-03-01T10:24:58.356Z,2.49
2023-03-01T10:28:03.221Z,2.47
2023-03-01T10:31:05.222Z,2.52
2023-03-01T10:34:11.603Z,2.57
2023-03-01T10:37:14.407Z,2.55
2023-03-01T10:40:16.367Z,2.40
2023-03-01T10:43:18.483Z,2.43
2023-03-01T10:46:24.292Z,2.37
2023-03-01T10:49:27.518Z,2.54
2023-03-01T10:52:33.983Z,2.78
2023-03-01T10:55:36.717Z,2.76
2023-03-01T10:58:39.428Z,2.83
2023-03-01T11:01:41.285Z,2.81
2023-03-01T11:04:56.967Z,2.96
2023-03-01T11:07:59.389Z,3.00
2023-03-01T11:11:21.986Z,3.23
2023-03-01T11:14:27.111Z,3.38
2023-03-01T11:17:31.609Z,3.24
2023-03-01T11:20:36.912Z,3.54
2023-03-01T11:23:40.137Z,3.72
2023-03-01T11:26:43.445Z,3.85
2023-03-01T11:29:49.017Z,3.67
2023-03-01T11:32:58.216Z,3.59
2023-03-01T11:36:04.147Z,3.44
2023-03-01T11:39:13.964Z,3.33
2023-03-01T11:42:30.258Z,3.36
2023-03-01T11:45:35.927Z,3.59
2023-03-01T11:48:50.080Z,3.82
2023-03-01T11:51:56.837Z,3.82
2023-03-01T11:55:16.598Z,3.82
2023-03-01T11:58:28.568Z,3.72
2023-03-01T12:01:37.259Z,3.76
2023-03-01T12:04:54.962Z,4.11
2023-03-01T12:08:01.883Z,4.04
2023-03-01T12:11:11.208Z,4.42
2023-03-01T12:14:29.864Z,4.15
2023-03-01T12:17:35.381Z,4.08
2023-03-01T12:20:42.304Z,4.32
2023-03-01T12:24:02.196Z,4.57
2023-03-01T12:27:17.197Z,4.28
2023-03-01T12:30:26.378Z,4.40
2023-03-01T12:33:34.181Z,4.46
2023-03-01T12:36:53.633Z,4.70
2023-03-01T12:40:14.568Z,4.85
2023-03-01T12:43:23.696Z,4.72
2023-03-01T12:46:30.206Z,4.90
2023-03-01T12:49:34.630Z,4.96
2023-03-01T12:52:39.800Z,4.95
2023-03-01T12:55:43.887Z,4.83
2023-03-01T12:58:56.864Z,4.86
2023-03-01T13:02:05.857Z,4.90
2023-03-01T13:05:18.659Z,4.79
2023-03-01T13:08:21.749Z,4.98
2023-03-01T13:11:24.118Z,5.01
2023-03-01T13:14:45.178Z,5.17
2023-03-01T13:17:47.104Z,5.26
2023-03-01T13:20:49.932Z,5.27
2023-03-01T13:23:51.561Z,5.31
2023-03-01T13:27:14.188Z,5.23
2023-03-01T13:30:39.956Z,5.03
2023-03-01T13:33:46.957Z,5.34
2023-03-01T13:36:49.910Z,5.37
2023-03-01T13:39:52.394Z,5.45
2023-03-01T13:43:04.743Z,5.35
2023-03-01T13:46:12.236Z,5.26
2023-03-01T13:49:16.610Z,5.27
2023-03-01T13:52:32.862Z,5.33
2023-03-01T13:55:38.327Z,5.33
2023-03-01T14:01:53.822Z,5.66
2023-03-01T14:05:00.663Z,5.66
2023-03-01T14:08:02.517Z,5.62
2023-03-01T14:11:17.408Z,5.58
2023-03-01T14:14:24.982Z,5.59
2023-03-01T14:17:34.571Z,5.58
2023-03-01T14:20:41.279Z,5.21
2023-03-01T14:23:43.255Z,5.30
2023-03-01T14:26:45.089Z,5.23
2023-03-01T14:29:55.947Z,5.10
2023-03-01T14:32:58.342Z,4.89
2023-03-01T14:36:02.543Z,4.98
2023-03-01T14:39:17.776Z,5.04
2023-03-01T14:42:20.417Z,5.20
2023-03-01T14:45:22.567Z,5.12
2023-03-01T14:48:24.628Z,5.19
2023-03-01T14:51:27.620Z,5.23
2023-03-01T14:54:31.027Z,5.23
2023-03-01T14:57:33.228Z,5.20
2023-03-01T15:00:35.362Z,5.15
2023-03-01T15:03:40.999Z,5.06
2023-03-01T15:06:44.556Z,5.04
2023-03-01T15:09:46.921Z,5.10
2023-03-01T15:12:48.731Z,5.15
2023-03-01T15:15:51.409Z,5.08
2023-03-01T15:18:55.176Z,4.90
2023-03-01T15:21:58.309Z,4.82
2023-03-01T15:25:00.052Z,4.82
2023-03-01T15:28:02.494Z,4.76
2023-03-01T15:31:20.532Z,4.71
2023-03-01T15:34:23.461Z,4.69
2023-03-01T15:37:41.755Z,4.57
2023-03-01T15:40:50.187Z,4.47
2023-03-01T15:43:55.090Z,4.44
2023-03-01T15:46:57.533Z,4.33
2023-03-01T15:50:00.698Z,4.27
2023-03-01T15:53:07.540Z,4.15
2023-03-01T15:56:09.151Z,4.14
2023-03-01T16:02:31.202Z,3.97
2023-03-01T16:05:34.292Z,3.99
2023-03-01T16:08:37.342Z,3.99
2023-03-01T16:19:15.855Z,3.88
2023-03-01T16:29:12.056Z,3.52
2023-03-01T16:32:14.468Z,3.38
2023-03-01T16:35:17.781Z,3.25
2023-03-01T16:38:19.454Z,3.13
2023-03-01T16:41:22.124Z,3.10
2023-03-01T16:44:24.978Z,3.01
2023-03-01T16:47:26.643Z,2.92
2023-03-01T16:50:28.679Z,2.81
2023-03-01T16:53:30.378Z,2.73
2023-03-01T16:56:34.012Z,2.64
2023-03-01T16:59:38.253Z,2.58
2023-03-01T17:02:39.776Z,2.54
2023-03-01T17:05:41.302Z,2.48
2023-03-01T17:08:42.826Z,2.47
2023-03-01T17:11:44.320Z,2.42
2023-03-01T17:14:48.346Z,2.40
2023-03-01T17:17:51.964Z,2.35
2023-03-01T17:20:53.781Z,2.28
2023-03-01T17:23:56.117Z,2.25
2023-03-01T17:26:57.837Z,2.23
2023-03-01T17:30:00.835Z,2.22
2023-03-01T17:33:02.447Z,2.18
2023-03-01T17:39:36.301Z,2.02
2023-03-01T17:42:38.184Z,1.97
2023-03-01T17:45:44.514Z,1.97
2023-03-01T17:52:00.456Z,1.86
2023-03-01T17:55:02.105Z,1.82
2023-03-01T17:58:03.858Z,1.81
2023-03-01T18:01:12.140Z,1.80
2023-03-01T18:04:16.510Z,1.79
2023-03-01T18:07:18.444Z,1.80
2023-03-01T18:10:20.507Z,1.77
2023-03-01T18:13:22.002Z,1.73
2023-03-01T18:16:25.227Z,1.71
2023-03-01T18:19:28.545Z,1.70
2023-03-01T18:22:30.965Z,1.68
2023-03-01T18:25:32.787Z,1.63
2023-03-01T18:28:34.961Z,1.63
2023-03-01T18:31:37.930Z,1.59
2023-03-01T18:34:39.648Z,1.54
2023-03-01T18:37:43.957Z,1.51
2023-03-01T18:40:45.760Z,1.49
2023-03-01T18:43:47.458Z,1.48
2023-03-01T18:46:50.518Z,1.43
2023-03-01T18:49:52.160Z,1.37
2023-03-01T18:52:54.038Z,1.35
2023-03-01T18:55:59.187Z,1.31
2023-03-01T18:59:00.966Z,1.31
2023-03-01T19:02:04.038Z,1.30
2023-03-01T19:05:06.098Z,1.31
2023-03-01T19:08:07.978Z,1.31
2023-03-01T19:11:10.596Z,1.33
2023-03-01T19:14:12.134Z,1.32
2023-03-01T19:17:16.268Z,1.31
2023-03-01T19:20:18.030Z,1.32
2023-03-01T19:23:19.753Z,1.32
2023-03-01T19:26:22.650Z,1.32
2023-03-01T19:29:24.310Z,1.29
2023-03-01T19:32:27.471Z,1.29
2023-03-01T19:35:29.253Z,1.30
2023-03-01T19:38:30.976Z,1.30
2023-03-01T19:41:32.567Z,1.29
2023-03-01T19:44:34.184Z,1.26
2023-03-01T19:47:37.097Z,1.22
2023-03-01T19:50:39.042Z,1.21
2023-03-01T19:53:41.151Z,1.19
2023-03-01T19:56:42.825Z,1.16
2023-03-01T19:59:44.508Z,1.11
2023-03-01T20:02:47.669Z,1.10
2023-03-01T20:05:49.325Z,1.10
2023-03-01T20:08:50.982Z,1.09
2023-03-01T20:11:52.844Z,1.07
2023-03-01T20:14:57.010Z,1.03
2023-03-01T20:18:00.041Z,1.00
2023-03-01T20:21:01.803Z,0.93
2023-03-01T20:24:04.561Z,0.84
2023-03-01T20:27:06.257Z,0.77
2023-03-01T20:30:08.754Z,0.75
2023-03-01T20:33:11.755Z,0.74
2023-03-01T20:36:13.617Z,0.78
2023-03-01T20:39:15.823Z,0.80
2023-03-01T20:42:17.384Z,0.81
2023-03-01T20:45:19.074Z,0.80
2023-03-01T20:48:21.938Z,0.80
2023-03-01T20:51:23.601Z,0.80
2023-03-01T20:54:27.832Z,0.79
2023-03-01T20:57:29.502Z,0.81
2023-03-01T21:00:32.170Z,0.79
2023-03-01T21:03:35.776Z,0.74
2023-03-01T21:06:38.816Z,0.68
2023-03-01T21:09:41.977Z,0.67
2023-03-01T21:12:43.536Z,0.62
2023-03-01T21:15:52.396Z,0.59
2023-03-01T21:18:55.377Z,0.54
2023-03-01T21:21:56.881Z,0.58
2023-03-01T21:24:58.535Z,0.63
2023-03-01T21:28:00.264Z,0.65
2023-03-01T21:31:06.126Z,0.62
2023-03-01T21:37:29.929Z,0.59
2023-03-01T21:40:31.555Z,0.60
2023-03-01T21:43:33.148Z,0.57
2023-03-01T21:46:36.894Z,0.53
2023-03-01T21:49:40.206Z,0.52
2023-03-01T21:52:43.380Z,0.48
2023-03-01T21:55:48.422Z,0.42
2023-03-01T21:58:50.392Z,0.41
2023-03-01T22:01:52.086Z,0.39
2023-03-01T22:04:57.534Z,0.36
2023-03-01T22:08:00.543Z,0.32
2023-03-01T22:11:02.946Z,0.26
2023-03-01T22:14:05.152Z,0.25
2023-03-01T22:17:06.922Z,0.24
2023-03-01T22:20:09.886Z,0.20
2023-03-01T22:23:12.940Z,0.17
2023-03-01T22:26:22.199Z,0.13
2023-03-01T22:29:25.077Z,0.09
2023-03-01T22:32:26.690Z,0.07
2023-03-01T22:35:28.417Z,0.08
2023-03-01T22:38:32.303Z,0.12
2023-03-01T22:41:34.938Z,0.19
2023-03-01T22:44:36.454Z,0.25
2023-03-01T22:47:38.216Z,0.27
2023-03-01T22:50:41.862Z,0.28
2023-03-01T22:53:44.926Z,0.27
2023-03-01T22:56:46.786Z,0.17
2023-03-01T22:59:48.773Z,0.17
2023-03-01T23:02:50.552Z,0.14
2023-03-01T23:05:52.749Z,0.15
2023-03-01T23:08:56.814Z,0.13
2023-03-01T23:11:59.053Z,0.16
2023-03-01T23:15:01.893Z,0.14
2023-03-01T23:18:04.040Z,0.14
2023-03-01T23:21:09.697Z,0.18
2023-03-01T23:24:13.082Z,0.12
2023-03-01T23:27:16.911Z,0.14
2023-03-01T23:30:18.764Z,0.14
2023-03-01T23:33:20.311Z,0.13
2023-03-01T23:36:22.968Z,0.15
2023-03-01T23:39:30.008Z,0.14
2023-03-01T23:42:31.781Z,0.12
2023-03-01T23:45:36.704Z,-0.04
2023-03-01T23:48:38.256Z,-0.18
2023-03-01T23:51:40.097Z,-0.28
2023-03-01T23:58:15.540Z,-0.53
